Terminal Aerodrome Forecast
Issued by NWS

Home | Current Version | Previous Version | Text Only | Print | Product List | Glossary On
Versions: 1 2 3 4 5 6 7 8 9 10 11 12
332
FTUS43 KPAH 101123
TAFCGI
TAF
KCGI 101123Z 1012/1112 VRB02KT P6SM SKC
     FM101400 22009G16KT P6SM SCT100
     FM101800 22013G21KT P6SM BKN100
     FM110200 28006KT P6SM SCT100=

USA.gov is the U.S. government's official web portal to all federal, state and local government web resources and services.